Time;durP1;ratioP1;P1;durP2;ratioP2;P2;SDS_P1;SDS_P2;PMS_P1;PMS_P2;Temp;Humidity;BMP_temperature;BMP_pressure;BME280_temperature;BME280_humidity;BME280_pressure;Samples;Min_cycle;Max_cycle;Signal;HPM_P1;HPM_P2
2023/05/12 00:00:06;;;;;;;3.45;1.55;;;11.10;99.90;;;;;;5073558;28;20047;-64
2023/05/12 00:02:32;;;;;;;3.15;1.38;;;11.10;99.90;;;;;;5092026;28;20052;-66
2023/05/12 00:04:58;;;;;;;4.40;1.52;;;11.10;99.90;;;;;;5057419;28;20047;-64
2023/05/12 00:07:24;;;;;;;2.92;1.70;;;11.10;99.90;;;;;;5073430;28;20093;-65
2023/05/12 00:09:50;;;;;;;3.20;1.17;;;11.00;99.90;;;;;;5073905;28;20132;-65
2023/05/12 00:12:15;;;;;;;5.03;1.05;;;11.00;99.90;;;;;;5092349;28;20456;-64
2023/05/12 00:14:41;;;;;;;4.28;1.40;;;11.00;99.90;;;;;;5091160;28;20036;-65
2023/05/12 00:17:08;;;;;;;3.85;1.40;;;11.10;99.90;;;;;;5073620;28;20048;-65
2023/05/12 00:19:35;;;;;;;3.90;1.75;;;11.10;99.90;;;;;;5073827;28;20070;-65
2023/05/12 00:22:01;;;;;;;2.97;1.77;;;11.10;99.90;;;;;;5091228;28;20565;-65
2023/05/12 00:24:29;;;;;;;3.30;0.90;;;11.10;99.90;;;;;;5073768;28;20036;-65
2023/05/12 00:26:55;;;;;;;4.20;1.40;;;11.10;99.90;;;;;;5073706;28;20043;-65
2023/05/12 00:29:21;;;;;;;3.75;1.15;;;11.10;99.90;;;;;;5072504;28;20572;-64
2023/05/12 00:31:46;;;;;;;2.33;1.00;;;11.10;99.90;;;;;;5091741;28;20044;-64
2023/05/12 00:34:12;;;;;;;2.85;1.10;;;11.10;99.90;;;;;;5073763;28;20117;-64
2023/05/12 00:36:39;;;;;;;2.08;1.00;;;11.10;99.90;;;;;;5072535;28;20484;-65
2023/05/12 00:39:05;;;;;;;1.67;0.63;;;11.10;99.90;;;;;;5091548;28;20040;-64
2023/05/12 00:41:30;;;;;;;2.67;1.13;;;11.10;99.90;;;;;;5073411;28;20036;-65
2023/05/12 00:43:56;;;;;;;1.95;0.77;;;11.10;99.90;;;;;;5072615;28;20036;-66
2023/05/12 00:46:22;;;;;;;2.97;0.98;;;11.10;99.90;;;;;;5073086;28;20044;-66
2023/05/12 00:48:48;;;;;;;2.95;0.68;;;11.10;99.90;;;;;;5068926;28;20052;-64
2023/05/12 00:51:15;;;;;;;1.60;0.80;;;11.10;99.90;;;;;;5070661;28;20075;-65
2023/05/12 00:53:42;;;;;;;3.42;1.10;;;11.10;99.90;;;;;;5070675;28;20037;-66
2023/05/12 00:56:09;;;;;;;3.50;1.38;;;11.10;99.90;;;;;;5070188;28;20033;-67
2023/05/12 00:58:35;;;;;;;1.63;0.77;;;11.10;99.90;;;;;;5070936;28;20045;-68
2023/05/12 01:01:00;;;;;;;3.63;1.20;;;11.10;99.90;;;;;;5069468;28;20040;-68
2023/05/12 01:03:27;;;;;;;1.75;1.00;;;11.10;99.90;;;;;;5052606;28;20039;-65
2023/05/12 01:06:07;;;;;;;2.35;1.02;;;11.10;99.90;;;;;;5052657;28;20055;-65
2023/05/12 01:08:34;;;;;;;3.10;0.93;;;11.10;99.90;;;;;;5070865;28;20036;-64
2023/05/12 01:11:00;;;;;;;2.28;1.00;;;11.10;99.90;;;;;;5052022;28;20489;-65
2023/05/12 01:13:27;;;;;;;1.65;0.73;;;11.10;99.90;;;;;;5069556;28;20040;-65
2023/05/12 01:15:54;;;;;;;1.75;0.73;;;11.10;99.90;;;;;;5069097;28;20465;-65
2023/05/12 01:18:22;;;;;;;2.80;1.15;;;11.10;99.90;;;;;;5051827;28;20043;-65
2023/05/12 01:20:49;;;;;;;2.40;1.10;;;11.10;99.90;;;;;;5069091;28;20563;-65
2023/05/12 01:23:18;;;;;;;1.33;0.60;;;11.10;99.90;;;;;;5070412;28;20036;-65
2023/05/12 01:25:46;;;;;;;1.10;0.60;;;11.20;99.90;;;;;;5068280;28;20495;-64
2023/05/12 01:28:13;;;;;;;2.05;1.10;;;11.20;99.90;;;;;;5068916;28;20044;-64
2023/05/12 01:30:42;;;;;;;3.40;1.92;;;11.20;99.90;;;;;;5069714;28;20044;-65
2023/05/12 01:33:09;;;;;;;2.35;1.40;;;11.20;99.90;;;;;;5052467;28;20037;-65
2023/05/12 01:35:35;;;;;;;4.78;1.33;;;11.20;99.90;;;;;;5052114;28;20685;-65
2023/05/12 01:38:01;;;;;;;3.88;1.58;;;11.20;99.90;;;;;;5069732;28;20033;-64
2023/05/12 01:40:27;;;;;;;3.88;1.80;;;11.20;99.90;;;;;;5068853;28;20496;-66
2023/05/12 01:42:53;;;;;;;5.03;1.80;;;11.20;99.90;;;;;;5069843;28;20083;-65
2023/05/12 01:45:19;;;;;;;3.85;1.67;;;11.30;99.90;;;;;;5068357;28;20410;-65
2023/05/12 01:47:45;;;;;;;7.90;2.53;;;11.30;99.90;;;;;;5068485;28;20063;-64
2023/05/12 01:50:11;;;;;;;4.68;2.05;;;11.30;99.90;;;;;;5051810;28;20049;-65
2023/05/12 01:52:37;;;;;;;3.17;1.80;;;11.30;99.90;;;;;;5068875;28;20039;-65
2023/05/12 01:55:03;;;;;;;5.63;2.58;;;11.30;99.90;;;;;;5069635;28;20436;-65
2023/05/12 01:57:28;;;;;;;5.28;2.20;;;11.30;99.90;;;;;;5068738;28;20123;-65
2023/05/12 01:59:54;;;;;;;5.30;2.10;;;11.30;99.90;;;;;;5068052;28;20511;-65
2023/05/12 02:02:20;;;;;;;6.32;2.38;;;11.30;99.90;;;;;;5068785;28;20055;-65
2023/05/12 02:04:46;;;;;;;4.70;2.40;;;11.40;99.90;;;;;;5068661;28;20044;-65
2023/05/12 02:07:12;;;;;;;5.72;2.45;;;11.40;99.90;;;;;;5067726;28;20520;-65
2023/05/12 02:09:38;;;;;;;5.18;2.03;;;11.40;99.90;;;;;;5068629;28;20123;-65
2023/05/12 02:12:04;;;;;;;4.43;2.05;;;11.40;99.90;;;;;;5068628;28;20111;-65
2023/05/12 02:14:30;;;;;;;4.05;1.98;;;11.40;99.90;;;;;;5051166;28;20123;-65
2023/05/12 02:16:56;;;;;;;4.65;2.15;;;11.40;99.90;;;;;;5069527;28;20064;-65
2023/05/12 02:19:21;;;;;;;6.15;2.50;;;11.40;99.90;;;;;;5069460;28;20097;-65
2023/05/12 02:21:47;;;;;;;5.68;1.83;;;11.50;99.90;;;;;;5069077;28;20043;-65
2023/05/12 02:24:15;;;;;;;7.03;2.67;;;11.50;99.90;;;;;;5068285;28;20052;-65
2023/05/12 02:26:41;;;;;;;5.65;2.35;;;11.50;99.90;;;;;;5067992;28;20381;-65
2023/05/12 02:29:07;;;;;;;8.27;2.45;;;11.50;99.90;;;;;;5069674;28;20114;-65
2023/05/12 02:31:33;;;;;;;8.30;3.28;;;11.50;99.90;;;;;;5051766;28;20637;-64
2023/05/12 02:34:00;;;;;;;5.90;3.20;;;11.50;99.90;;;;;;5067621;28;20033;-65
2023/05/12 02:36:25;;;;;;;6.30;2.33;;;11.50;99.90;;;;;;5068153;28;20083;-65
2023/05/12 02:38:51;;;;;;;9.77;3.35;;;11.50;99.90;;;;;;5068423;28;20068;-65
2023/05/12 02:41:17;;;;;;;6.85;2.90;;;11.60;99.90;;;;;;5067749;28;20056;-65
2023/05/12 02:43:43;;;;;;;7.97;3.10;;;11.60;99.90;;;;;;5068360;28;20137;-65
2023/05/12 02:46:08;;;;;;;5.70;2.50;;;11.50;99.90;;;;;;5068127;28;20669;-65
2023/05/12 02:48:34;;;;;;;8.45;3.30;;;11.60;99.90;;;;;;5067440;28;20190;-66
2023/05/12 02:51:00;;;;;;;11.45;3.50;;;11.60;99.90;;;;;;5068241;28;20044;-65
2023/05/12 02:53:27;;;;;;;8.77;3.35;;;11.60;99.90;;;;;;5067966;28;20562;-65
2023/05/12 02:55:53;;;;;;;6.60;2.78;;;11.60;99.90;;;;;;5067558;28;20119;-65
2023/05/12 02:58:19;;;;;;;5.38;2.55;;;11.60;99.90;;;;;;5051671;28;20119;-65
2023/05/12 03:00:44;;;;;;;7.05;3.30;;;11.60;99.90;;;;;;5069288;28;20040;-65
2023/05/12 03:03:11;;;;;;;9.20;3.63;;;11.60;99.90;;;;;;5067848;28;20127;-65
2023/05/12 03:05:37;;;;;;;5.93;2.67;;;11.60;99.90;;;;;;5072856;28;20512;-65
2023/05/12 03:08:02;;;;;;;8.93;3.90;;;11.60;99.90;;;;;;5071716;28;20049;-65
2023/05/12 03:10:28;;;;;;;7.60;3.63;;;11.70;99.90;;;;;;5071193;28;20042;-65
2023/05/12 03:12:54;;;;;;;8.65;2.95;;;11.70;99.90;;;;;;5071483;28;20040;-65
2023/05/12 03:15:20;;;;;;;5.85;2.88;;;11.70;99.90;;;;;;5071719;28;20044;-65
2023/05/12 03:17:46;;;;;;;7.28;3.78;;;11.70;99.90;;;;;;5071803;28;20075;-65
2023/05/12 03:20:11;;;;;;;9.65;3.50;;;11.70;99.90;;;;;;5071223;28;20098;-65
2023/05/12 03:22:37;;;;;;;8.35;2.75;;;11.70;99.90;;;;;;5072156;28;20119;-65
2023/05/12 03:25:04;;;;;;;7.95;3.50;;;11.70;99.90;;;;;;5071238;28;20051;-65
2023/05/12 03:27:33;;;;;;;8.45;4.03;;;11.70;99.90;;;;;;5071478;28;20507;-65
2023/05/12 03:29:59;;;;;;;7.43;3.27;;;11.70;99.90;;;;;;5072030;28;20047;-65
2023/05/12 03:32:27;;;;;;;6.90;2.85;;;11.70;99.90;;;;;;5071062;28;20119;-64
2023/05/12 03:34:53;;;;;;;5.60;2.83;;;11.70;99.90;;;;;;5071468;28;20110;-65
2023/05/12 03:37:18;;;;;;;7.55;3.72;;;11.70;99.90;;;;;;5054018;28;20036;-65
2023/05/12 03:39:44;;;;;;;11.52;3.92;;;11.70;99.90;;;;;;5072480;28;20060;-65
2023/05/12 03:42:10;;;;;;;8.63;3.45;;;11.70;99.90;;;;;;5072425;28;20493;-65
2023/05/12 03:44:36;;;;;;;7.65;2.83;;;11.80;99.90;;;;;;5071514;28;20558;-65
2023/05/12 03:47:02;;;;;;;6.80;3.15;;;11.70;99.90;;;;;;5054412;28;20095;-65
2023/05/12 03:49:28;;;;;;;13.65;4.75;;;11.80;99.90;;;;;;5090836;28;20439;-65
2023/05/12 03:51:54;;;;;;;10.57;4.30;;;11.80;99.90;;;;;;5091918;28;20111;-65
2023/05/12 03:54:19;;;;;;;9.00;3.40;;;11.80;99.90;;;;;;5092461;28;20034;-65
2023/05/12 03:56:45;;;;;;;6.00;3.15;;;11.80;99.90;;;;;;5074572;28;20043;-64
2023/05/12 03:59:11;;;;;;;13.43;4.82;;;11.80;99.90;;;;;;5091730;28;20032;-64
2023/05/12 04:01:37;;;;;;;10.70;4.47;;;11.80;99.90;;;;;;5073946;28;20546;-64
2023/05/12 04:04:03;;;;;;;9.57;3.45;;;11.80;99.90;;;;;;5074171;28;20051;-65
2023/05/12 04:06:30;;;;;;;9.55;4.38;;;11.80;99.90;;;;;;5091764;28;20039;-63
2023/05/12 04:08:56;;;;;;;20.33;5.03;;;11.80;99.90;;;;;;5092163;28;20040;-64
2023/05/12 04:11:22;;;;;;;9.10;4.60;;;11.80;99.90;;;;;;5091930;28;20046;-65
2023/05/12 04:13:48;;;;;;;8.00;3.78;;;11.80;99.90;;;;;;5073173;28;20036;-65
2023/05/12 04:16:14;;;;;;;7.38;3.63;;;11.80;99.90;;;;;;5091462;28;20040;-65
2023/05/12 04:18:40;;;;;;;11.55;4.40;;;11.80;99.90;;;;;;5073052;28;20052;-62
2023/05/12 04:21:05;;;;;;;8.00;3.78;;;11.90;99.90;;;;;;5073628;28;20039;-63
2023/05/12 04:23:31;;;;;;;12.18;5.45;;;11.90;99.90;;;;;;5073785;28;20090;-65
2023/05/12 04:25:57;;;;;;;12.15;4.30;;;11.90;99.90;;;;;;5056609;28;20412;-65
2023/05/12 04:28:23;;;;;;;10.77;4.20;;;11.90;99.90;;;;;;5073680;28;20446;-64
2023/05/12 04:30:49;;;;;;;8.95;3.83;;;11.90;99.90;;;;;;5073521;28;20040;-65
2023/05/12 04:33:15;;;;;;;15.18;4.07;;;11.90;99.90;;;;;;5073260;28;20047;-64
2023/05/12 04:35:40;;;;;;;10.35;3.85;;;11.90;99.90;;;;;;5056683;28;20404;-63
2023/05/12 04:38:06;;;;;;;7.93;4.55;;;12.00;99.90;;;;;;5091599;28;20036;-65
2023/05/12 04:40:32;;;;;;;10.80;5.30;;;12.00;99.90;;;;;;5072601;28;20046;-65
2023/05/12 04:42:58;;;;;;;9.18;4.43;;;12.10;99.90;;;;;;5073354;28;20040;-65
2023/05/12 04:45:23;;;;;;;11.23;4.85;;;12.00;99.90;;;;;;5073015;28;20506;-64
2023/05/12 04:47:49;;;;;;;8.25;3.55;;;12.10;99.90;;;;;;5090532;28;20060;-64
2023/05/12 04:50:15;;;;;;;8.05;3.80;;;12.10;99.90;;;;;;5072929;28;20120;-65
2023/05/12 04:52:41;;;;;;;11.00;4.30;;;12.20;99.90;;;;;;5073066;28;20093;-64
2023/05/12 04:55:07;;;;;;;10.63;4.88;;;12.20;99.90;;;;;;5090707;28;20036;-65
2023/05/12 04:57:33;;;;;;;11.35;4.45;;;12.20;99.90;;;;;;5072964;28;20123;-65
2023/05/12 04:59:59;;;;;;;14.13;4.93;;;12.30;99.90;;;;;;5091252;28;20559;-65
2023/05/12 05:02:25;;;;;;;12.68;4.88;;;12.30;99.90;;;;;;5072411;28;20048;-64
2023/05/12 05:04:51;;;;;;;10.32;3.85;;;12.30;99.90;;;;;;5072951;28;20119;-64
2023/05/12 05:07:17;;;;;;;9.48;4.40;;;12.30;99.90;;;;;;5073116;28;20127;-64
2023/05/12 05:09:43;;;;;;;8.40;3.83;;;12.30;99.90;;;;;;5090225;28;20571;-64
2023/05/12 05:12:09;;;;;;;8.90;3.53;;;12.40;99.90;;;;;;5072437;28;20036;-64
2023/05/12 05:14:34;;;;;;;12.57;3.90;;;12.40;99.90;;;;;;5055574;28;20040;-64
2023/05/12 05:17:01;;;;;;;9.13;4.07;;;12.40;99.90;;;;;;5055712;28;20035;-64
2023/05/12 05:19:27;;;;;;;8.00;3.80;;;12.50;99.90;;;;;;5072431;28;20085;-63
2023/05/12 05:21:53;;;;;;;11.70;4.93;;;12.50;99.90;;;;;;5055437;28;20075;-62
2023/05/12 05:24:19;;;;;;;10.70;3.97;;;12.60;99.90;;;;;;5072236;28;20075;-63
2023/05/12 05:26:45;;;;;;;12.75;4.03;;;12.60;99.90;;;;;;5054749;28;20040;-62
2023/05/12 05:29:11;;;;;;;13.07;4.68;;;12.60;99.90;;;;;;5089833;28;20111;-63
2023/05/12 05:31:37;;;;;;;11.65;4.65;;;12.60;99.90;;;;;;5090459;28;20043;-63
2023/05/12 05:34:03;;;;;;;8.27;3.55;;;12.60;99.90;;;;;;5072187;28;20044;-62
2023/05/12 05:36:29;;;;;;;10.27;4.93;;;12.70;99.90;;;;;;5089888;28;20032;-63
2023/05/12 05:38:55;;;;;;;10.40;4.05;;;12.80;99.90;;;;;;5090230;28;20123;-62
2023/05/12 05:41:23;;;;;;;10.82;4.35;;;12.80;99.90;;;;;;5072087;28;20181;-63
2023/05/12 05:43:49;;;;;;;12.68;4.75;;;12.80;99.90;;;;;;5071421;28;20102;-64
2023/05/12 05:46:15;;;;;;;10.90;4.50;;;12.90;99.90;;;;;;5090389;28;20111;-64
2023/05/12 05:48:41;;;;;;;13.00;3.67;;;12.90;99.90;;;;;;5071870;28;20058;-63
2023/05/12 05:51:07;;;;;;;10.00;3.55;;;13.00;99.90;;;;;;5071776;28;20114;-62
2023/05/12 05:53:33;;;;;;;10.32;4.75;;;13.10;99.90;;;;;;5089922;28;20043;-63
2023/05/12 05:55:58;;;;;;;9.60;4.32;;;13.10;99.90;;;;;;5090238;28;20081;-63
2023/05/12 05:58:24;;;;;;;11.63;4.95;;;13.10;99.90;;;;;;5071858;28;20123;-63
2023/05/12 06:00:50;;;;;;;10.40;3.97;;;13.10;99.90;;;;;;5068319;28;20491;-63
2023/05/12 06:03:16;;;;;;;7.75;4.13;;;13.10;99.90;;;;;;5110086;28;20062;-63
2023/05/12 06:05:42;;;;;;;13.52;4.70;;;13.20;99.90;;;;;;5091561;28;20077;-64
2023/05/12 06:08:09;;;;;;;12.60;4.13;;;13.20;99.90;;;;;;5091995;28;20554;-63
2023/05/12 06:10:36;;;;;;;10.18;4.55;;;13.20;99.90;;;;;;5109575;28;20051;-64
2023/05/12 06:13:02;;;;;;;8.98;4.53;;;13.30;99.90;;;;;;5075213;28;20475;-63
2023/05/12 06:15:27;;;;;;;9.57;4.35;;;13.30;99.90;;;;;;5091850;28;20074;-64
2023/05/12 06:17:53;;;;;;;11.98;5.68;;;13.30;99.90;;;;;;5109874;28;20035;-64
2023/05/12 06:20:19;;;;;;;11.95;4.22;;;13.30;99.90;;;;;;5091912;28;20564;-63
2023/05/12 06:22:45;;;;;;;12.55;4.47;;;13.40;99.90;;;;;;5075133;28;20070;-64
2023/05/12 06:25:11;;;;;;;11.70;4.88;;;13.40;99.90;;;;;;5091448;28;20044;-64
2023/05/12 06:27:37;;;;;;;12.20;4.18;;;13.30;99.90;;;;;;5091924;28;20411;-64
2023/05/12 06:30:03;;;;;;;12.02;4.10;;;13.30;99.90;;;;;;5110031;28;20040;-64
2023/05/12 06:32:29;;;;;;;10.35;3.72;;;13.30;99.90;;;;;;5109592;28;20039;-64
2023/05/12 06:34:55;;;;;;;9.93;4.45;;;13.30;99.90;;;;;;5109886;28;20036;-64
2023/05/12 06:37:21;;;;;;;10.02;4.50;;;13.30;99.90;;;;;;5092011;28;20055;-64
2023/05/12 06:39:47;;;;;;;10.82;4.90;;;13.30;99.90;;;;;;5094782;28;20108;-63
2023/05/12 06:42:12;;;;;;;10.07;4.10;;;13.30;99.90;;;;;;5095724;28;20039;-64
2023/05/12 06:44:38;;;;;;;12.60;4.30;;;13.30;99.90;;;;;;5095938;28;20071;-63
2023/05/12 06:47:04;;;;;;;13.68;4.88;;;13.30;99.90;;;;;;5095265;28;20491;-63
2023/05/12 06:49:34;;;;;;;8.57;3.90;;;13.30;99.90;;;;;;5095375;28;20580;-64
2023/05/12 06:52:00;;;;;;;12.75;4.82;;;13.30;99.90;;;;;;5114060;28;20100;-64
2023/05/12 06:54:26;;;;;;;9.23;3.85;;;13.30;99.90;;;;;;5113670;28;20024;-64
2023/05/12 06:56:52;;;;;;;10.95;4.95;;;13.30;99.90;;;;;;5095423;28;20062;-64
2023/05/12 06:59:18;;;;;;;10.18;3.53;;;13.30;99.90;;;;;;5113978;28;20035;-64
2023/05/12 07:01:44;;;;;;;8.10;3.53;;;13.30;99.90;;;;;;5094672;28;20044;-64
2023/05/12 07:04:09;;;;;;;10.90;4.82;;;13.30;99.90;;;;;;5113829;28;20032;-63
2023/05/12 07:06:35;;;;;;;10.25;3.92;;;13.30;99.90;;;;;;5094844;28;20039;-64
2023/05/12 07:09:01;;;;;;;9.00;4.57;;;13.30;99.90;;;;;;5095316;28;20039;-64
2023/05/12 07:11:27;;;;;;;12.68;4.78;;;13.30;99.90;;;;;;5095090;28;20096;-64
2023/05/12 07:13:53;;;;;;;13.48;4.25;;;13.30;99.90;;;;;;5094700;28;20112;-65
2023/05/12 07:16:19;;;;;;;11.65;4.20;;;13.40;99.90;;;;;;5113512;28;20046;-63
2023/05/12 07:18:45;;;;;;;14.45;4.97;;;13.40;99.90;;;;;;5095249;28;20072;-64
2023/05/12 07:21:12;;;;;;;8.73;3.70;;;13.30;99.90;;;;;;5094302;28;20039;-63
2023/05/12 07:23:38;;;;;;;9.98;4.25;;;13.30;99.90;;;;;;5078664;28;20375;-63
2023/05/12 07:26:05;;;;;;;11.23;4.20;;;13.30;99.90;;;;;;5078378;28;20372;-63
2023/05/12 07:28:35;;;;;;;8.93;3.55;;;13.30;99.90;;;;;;5112500;28;20495;-63
2023/05/12 07:31:02;;;;;;;10.73;3.88;;;13.30;99.90;;;;;;5077692;28;20555;-63
2023/05/12 07:33:29;;;;;;;9.80;4.03;;;13.30;99.90;;;;;;5074472;28;20131;-63
2023/05/12 07:35:55;;;;;;;9.15;4.32;;;13.40;99.90;;;;;;5091862;28;20522;-63
2023/05/12 07:38:21;;;;;;;10.00;3.95;;;13.40;99.90;;;;;;5074740;28;20043;-63
2023/05/12 07:40:47;;;;;;;9.25;4.18;;;13.40;99.90;;;;;;5074672;28;20090;-63
2023/05/12 07:43:13;;;;;;;11.57;4.80;;;13.40;99.90;;;;;;5091702;28;20071;-63
2023/05/12 07:45:39;;;;;;;14.57;5.00;;;13.40;99.90;;;;;;5073684;28;20101;-63
2023/05/12 07:48:05;;;;;;;18.17;4.40;;;13.40;99.90;;;;;;5091186;28;20056;-63
2023/05/12 07:50:31;;;;;;;13.80;5.03;;;13.50;99.90;;;;;;5071721;28;20044;-63
2023/05/12 07:52:57;;;;;;;10.68;4.22;;;13.50;99.90;;;;;;5091898;28;20036;-63
2023/05/12 07:55:24;;;;;;;10.82;4.65;;;13.40;99.90;;;;;;5091196;28;20404;-63
2023/05/12 07:57:50;;;;;;;10.77;3.63;;;13.50;99.90;;;;;;5072744;28;20124;-63
2023/05/12 08:00:16;;;;;;;11.38;4.00;;;13.50;99.90;;;;;;5091382;28;20528;-62
2023/05/12 08:02:42;;;;;;;14.93;4.78;;;13.50;99.90;;;;;;5090822;28;20081;-62
2023/05/12 08:05:09;;;;;;;10.20;4.70;;;13.60;99.90;;;;;;5090977;28;20076;-62
2023/05/12 08:07:36;;;;;;;8.75;4.07;;;13.60;99.90;;;;;;5073387;28;20044;-63
2023/05/12 08:10:04;;;;;;;11.00;4.35;;;13.70;99.90;;;;;;5072473;28;20485;-64
2023/05/12 08:12:30;;;;;;;12.50;4.20;;;13.70;99.90;;;;;;5073329;28;20036;-64
2023/05/12 08:14:55;;;;;;;12.90;4.57;;;13.70;99.90;;;;;;5073276;28;20487;-64
2023/05/12 08:17:21;;;;;;;9.30;4.57;;;13.80;99.90;;;;;;5072039;28;20393;-64
2023/05/12 08:19:47;;;;;;;12.30;4.95;;;13.80;99.90;;;;;;5072681;28;20044;-64
2023/05/12 08:22:13;;;;;;;12.35;4.43;;;14.00;99.90;;;;;;5072824;28;20047;-64
2023/05/12 08:24:39;;;;;;;10.05;4.30;;;14.10;99.90;;;;;;5071914;28;20051;-64
2023/05/12 08:27:05;;;;;;;12.98;5.40;;;14.20;99.90;;;;;;5072476;28;20050;-65
2023/05/12 08:29:30;;;;;;;16.30;4.28;;;14.40;99.90;;;;;;5089445;28;20047;-64
2023/05/12 08:31:57;;;;;;;9.77;4.28;;;14.60;99.90;;;;;;5090290;28;20550;-64
2023/05/12 08:34:24;;;;;;;12.60;4.50;;;14.70;99.90;;;;;;5072624;28;20499;-64
2023/05/12 08:36:53;;;;;;;12.65;5.28;;;15.00;99.90;;;;;;5090789;28;20040;-64
2023/05/12 08:39:20;;;;;;;10.23;5.25;;;15.10;99.90;;;;;;5071833;28;20046;-65
2023/05/12 08:42:16;;;;;;;10.55;4.65;;;15.30;99.90;;;;;;5055999;28;20124;-65
2023/05/12 08:44:42;;;;;;;8.73;4.95;;;15.50;99.90;;;;;;5054989;28;20040;-67
2023/05/12 08:47:10;;;;;;;10.95;4.85;;;15.80;99.90;;;;;;5072255;28;20040;-66
2023/05/12 08:49:39;;;;;;;10.27;5.65;;;15.90;99.90;;;;;;5071797;28;20496;-66
2023/05/12 08:52:06;;;;;;;8.82;4.97;;;16.10;99.90;;;;;;5054909;28;20302;-66
2023/05/12 08:54:32;;;;;;;10.18;5.25;;;16.30;99.90;;;;;;5089977;28;20079;-66
2023/05/12 08:56:59;;;;;;;9.75;4.85;;;16.60;99.90;;;;;;5090122;28;20075;-67
2023/05/12 08:59:25;;;;;;;9.10;4.65;;;16.80;99.90;;;;;;5054586;28;20047;-66
2023/05/12 09:01:53;;;;;;;11.30;4.68;;;17.20;99.90;;;;;;5071691;28;20032;-66
2023/05/12 09:04:19;;;;;;;8.88;4.60;;;17.50;99.90;;;;;;5071722;28;20602;-66
2023/05/12 09:06:45;;;;;;;10.55;5.30;;;17.80;99.90;;;;;;5090257;28;20044;-65
2023/05/12 09:09:16;;;;;;;9.10;4.57;;;17.90;99.90;;;;;;5073195;28;20076;-65
2023/05/12 09:11:42;;;;;;;9.60;4.50;;;17.90;99.90;;;;;;5090680;28;20123;-66
2023/05/12 09:14:20;;;;;;;12.40;4.60;;;18.00;99.90;;;;;;5071854;28;20043;-66
2023/05/12 09:16:48;;;;;;;10.13;5.18;;;18.10;99.90;;;;;;5090905;28;20075;-66
2023/05/12 09:19:19;;;;;;;12.93;5.57;;;18.10;99.90;;;;;;5072880;28;20055;-65
2023/05/12 09:21:46;;;;;;;11.80;5.55;;;18.10;99.90;;;;;;5072045;28;20052;-66
2023/05/12 09:24:12;;;;;;;10.23;4.65;;;18.10;99.90;;;;;;5072911;28;20388;-66
2023/05/12 09:26:46;;;;;;;10.02;5.10;;;18.10;99.90;;;;;;5090221;28;20039;-66
2023/05/12 09:29:12;;;;;;;10.00;4.68;;;18.20;99.90;;;;;;5091061;28;20388;-65
2023/05/12 09:31:37;;;;;;;11.20;4.85;;;18.20;99.90;;;;;;5090323;28;20036;-66
2023/05/12 09:34:08;;;;;;;8.10;5.35;;;18.50;99.90;;;;;;5071805;28;20047;-67
2023/05/12 09:36:34;;;;;;;11.05;5.15;;;18.80;99.90;;;;;;5072747;28;20050;-66
2023/05/12 09:39:03;;;;;;;9.20;4.60;;;18.90;99.90;;;;;;5072230;28;20105;-66
2023/05/12 09:41:30;;;;;;;9.90;4.93;;;18.80;99.90;;;;;;5071972;28;20040;-67
2023/05/12 09:43:58;;;;;;;11.40;5.05;;;18.80;99.90;;;;;;5090412;28;20127;-67
2023/05/12 09:46:24;;;;;;;10.75;4.53;;;18.80;99.90;;;;;;5090543;28;20044;-67
2023/05/12 09:48:53;;;;;;;10.90;4.20;;;18.90;99.90;;;;;;5071493;28;20043;-67
2023/05/12 09:51:19;;;;;;;9.73;4.43;;;19.00;99.90;;;;;;5089977;28;20123;-65
2023/05/12 09:53:45;;;;;;;10.70;4.55;;;19.20;99.90;;;;;;5072010;28;20120;-67
2023/05/12 09:56:13;;;;;;;9.88;4.57;;;19.40;99.90;;;;;;5088113;28;20047;-67
2023/05/12 09:58:47;;;;;;;8.57;4.68;;;19.60;99.90;;;;;;5071882;28;20123;-66
2023/05/12 10:01:15;;;;;;;9.25;4.10;;;19.90;99.90;;;;;;5072061;28;20043;-67
2023/05/12 10:03:41;;;;;;;8.32;4.25;;;20.10;99.90;;;;;;5089211;28;20527;-66
2023/05/12 10:06:15;;;;;;;7.85;4.22;;;20.30;99.90;;;;;;5055685;28;20083;-67
2023/05/12 10:08:50;;;;;;;6.68;3.80;;;20.40;99.90;;;;;;5089586;28;20083;-66
2023/05/12 10:11:16;;;;;;;9.35;4.20;;;20.70;99.90;;;;;;5055002;28;20044;-67
2023/05/12 10:13:42;;;;;;;7.57;3.83;;;20.90;99.90;;;;;;5071438;28;20044;-67
2023/05/12 10:16:09;;;;;;;10.00;4.45;;;21.00;99.90;;;;;;5071520;28;20035;-68
2023/05/12 10:18:35;;;;;;;7.97;4.15;;;21.20;99.90;;;;;;5071807;28;20047;-68
2023/05/12 10:21:02;;;;;;;6.40;3.72;;;21.40;99.90;;;;;;5054965;28;20097;-67
2023/05/12 10:23:28;;;;;;;7.80;4.05;;;21.60;99.90;;;;;;5089076;28;20047;-67
2023/05/12 10:26:00;;;;;;;6.45;3.35;;;21.80;99.90;;;;;;5071720;28;20427;-66
2023/05/12 10:28:27;;;;;;;6.53;3.20;;;22.00;99.90;;;;;;5088563;28;20541;-68
2023/05/12 10:30:55;;;;;;;6.10;3.28;;;21.90;99.90;;;;;;5071164;28;20040;-68
2023/05/12 10:33:21;;;;;;;6.45;3.90;;;22.00;99.90;;;;;;5071819;28;20492;-68
2023/05/12 10:35:47;;;;;;;6.18;3.05;;;22.10;99.90;;;;;;5071480;28;20074;-69
2023/05/12 10:38:20;;;;;;;6.75;3.28;;;22.30;99.90;;;;;;5089012;28;20043;-69
2023/05/12 10:40:59;;;;;;;7.85;3.67;;;22.40;99.90;;;;;;5089754;28;20048;-68
2023/05/12 10:43:26;;;;;;;;;;;22.30;99.90;;;;;;5090008;28;20047;-68
2023/05/12 10:46:14;;;;;;;6.35;2.75;;;22.40;99.90;;;;;;5070949;28;19916;-68
2023/05/12 10:48:54;;;;;;;6.07;2.85;;;22.40;99.90;;;;;;5089316;28;20063;-68
2023/05/12 10:51:27;;;;;;;4.03;2.30;;;22.20;99.90;;;;;;5070737;28;20044;-68
2023/05/12 10:53:57;;;;;;;6.10;3.75;;;22.40;99.90;;;;;;5071580;28;20051;-68
2023/05/12 10:56:27;;;;;;;5.28;3.13;;;22.70;99.90;;;;;;5071319;28;20096;-68
2023/05/12 10:59:12;;;;;;;5.82;3.22;;;23.10;99.90;;;;;;5071150;28;20123;-70
2023/05/12 11:01:40;;;;;;;5.45;2.78;;;23.30;99.90;;;;;;5054825;28;20100;-68
2023/05/12 11:04:14;;;;;;;5.50;2.97;;;23.20;99.90;;;;;;5056639;28;20491;-68
2023/05/12 11:06:41;;;;;;;5.88;3.25;;;23.20;99.90;;;;;;5109124;28;20373;-68
2023/05/12 11:09:07;;;;;;;5.50;3.30;;;23.30;99.90;;;;;;5091919;28;20050;-70
2023/05/12 11:11:33;;;;;;;4.68;2.63;;;23.50;99.90;;;;;;5073840;28;20759;-68
2023/05/12 11:14:00;;;;;;;4.80;2.65;;;23.70;99.90;;;;;;5090363;28;20039;-69
2023/05/12 11:16:26;;;;;;;6.88;3.15;;;23.80;99.90;;;;;;5109103;28;20032;-69
2023/05/12 11:19:04;;;;;;;6.13;3.45;;;24.00;99.90;;;;;;5090736;28;20036;-68
2023/05/12 11:21:33;;;;;;;5.30;3.22;;;24.30;99.90;;;;;;5091315;28;20514;-71
2023/05/12 11:24:00;;;;;;;;;;;24.50;99.90;;;;;;5091806;28;20176;-69
2023/05/12 11:26:26;;;;;;;6.40;3.70;;;24.60;99.90;;;;;;5093104;28;19916;-71
2023/05/12 11:28:53;;;;;;;5.15;3.40;;;24.70;99.90;;;;;;5095172;28;20035;-69
2023/05/12 11:31:20;;;;;;;5.13;3.15;;;24.90;99.90;;;;;;5094563;28;20118;-69
2023/05/12 11:33:46;;;;;;;5.95;3.35;;;25.00;99.90;;;;;;5094391;28;20046;-70
2023/05/12 11:36:13;;;;;;;5.72;3.42;;;25.00;99.90;;;;;;5095090;28;20062;-69
2023/05/12 11:38:39;;;;;;;4.60;2.97;;;24.80;99.90;;;;;;5112964;28;20046;-69
2023/05/12 11:41:04;;;;;;;5.28;3.35;;;24.70;99.90;;;;;;5094405;28;20035;-69
2023/05/12 11:43:30;;;;;;;6.90;4.10;;;24.60;99.90;;;;;;5094437;28;20147;-69
2023/05/12 11:45:56;;;;;;;6.25;3.47;;;24.40;99.90;;;;;;5112716;28;20043;-70
2023/05/12 11:48:33;;;;;;;7.80;3.97;;;24.20;99.90;;;;;;5093689;28;20055;-69
2023/05/12 11:51:00;;;;;;;5.93;3.05;;;24.10;99.90;;;;;;5094398;28;20075;-70
2023/05/12 11:53:25;;;;;;;4.20;3.28;;;24.20;99.90;;;;;;5077682;28;20035;-69
2023/05/12 11:55:55;;;;;;;8.10;4.32;;;24.40;99.90;;;;;;5094189;28;20043;-70
2023/05/12 11:58:28;;;;;;;5.93;3.20;;;24.60;99.90;;;;;;5077435;28;20036;-69
2023/05/12 12:00:54;;;;;;;4.90;2.92;;;24.80;99.90;;;;;;5093850;28;20035;-68
2023/05/12 12:03:20;;;;;;;4.95;3.20;;;24.90;99.90;;;;;;5112822;28;20047;-68
2023/05/12 12:05:58;;;;;;;3.97;2.58;;;25.00;99.90;;;;;;5077586;28;20036;-70
2023/05/12 12:08:24;;;;;;;5.25;3.42;;;25.00;99.90;;;;;;5076730;28;20071;-69
2023/05/12 12:10:50;;;;;;;4.82;2.53;;;25.00;99.90;;;;;;5094244;28;20078;-69
2023/05/12 12:13:23;;;;;;;5.47;3.15;;;25.00;99.90;;;;;;5094183;28;20449;-70
2023/05/12 12:15:50;;;;;;;7.20;3.40;;;25.00;99.90;;;;;;5093717;28;20184;-70
2023/05/12 12:18:17;;;;;;;3.47;2.17;;;25.00;99.90;;;;;;5112415;28;20027;-70
2023/05/12 12:20:44;;;;;;;3.88;2.42;;;25.00;99.90;;;;;;5077256;28;20130;-69
2023/05/12 12:23:09;;;;;;;3.38;2.10;;;24.80;99.90;;;;;;5093377;28;20044;-69
2023/05/12 12:25:36;;;;;;;4.75;2.50;;;24.60;99.90;;;;;;5094437;28;20046;-69
2023/05/12 12:28:02;;;;;;;4.85;2.83;;;24.50;99.90;;;;;;5093737;28;20043;-70
2023/05/12 12:30:28;;;;;;;4.43;2.42;;;24.40;99.90;;;;;;5111262;28;20114;-68
2023/05/12 12:32:53;;;;;;;4.13;2.25;;;24.30;99.90;;;;;;5093994;28;20047;-69
2023/05/12 12:35:19;;;;;;;2.85;1.58;;;24.20;99.90;;;;;;5093714;28;20040;-69
2023/05/12 12:37:50;;;;;;;6.00;2.00;;;24.10;99.90;;;;;;5092847;28;20383;-68
2023/05/12 12:40:17;;;;;;;4.40;2.58;;;24.00;99.90;;;;;;5112071;28;20078;-70